createdAt,value
2022-08-12T00:01:13.114Z,96819.28
2022-08-12T00:04:26.210Z,96781.91
2022-08-12T00:07:13.738Z,96782.97
2022-08-12T00:10:00.246Z,96850.16
2022-08-12T00:12:46.168Z,96745.69
2022-08-12T00:15:34.558Z,96774.84
2022-08-12T00:18:21.451Z,96744.66
2022-08-12T00:21:08.633Z,96841.16
2022-08-12T00:23:54.926Z,96785.50
2022-08-12T00:26:42.139Z,96755.38
2022-08-12T00:29:28.985Z,96773.84
2022-08-12T00:32:35.388Z,96818.16
2022-08-12T00:35:20.616Z,96758.03
2022-08-12T00:38:11.573Z,96821.84
2022-08-12T00:41:00.356Z,96749.69
2022-08-12T00:43:30.191Z,96787.81
2022-08-12T00:46:16.136Z,96772.03
2022-08-12T00:48:44.452Z,96777.19
2022-08-12T00:51:12.689Z,96753.44
2022-08-12T00:53:42.493Z,96785.41
2022-08-12T00:56:10.965Z,96766.97
2022-08-12T00:58:46.970Z,96798.09
2022-08-12T01:01:17.502Z,96768.66
2022-08-12T01:04:08.833Z,96823.13
2022-08-12T01:07:10.245Z,96727.59
2022-08-12T01:09:57.971Z,96815.16
2022-08-12T01:12:28.051Z,96755.13
2022-08-12T01:14:57.523Z,96774.81
2022-08-12T01:17:27.100Z,96751.81
2022-08-12T01:19:57.189Z,96788.31
2022-08-12T01:22:31.886Z,96760.28
2022-08-12T01:25:07.915Z,96719.28
2022-08-12T01:27:41.793Z,96773.97
2022-08-12T01:30:13.590Z,96750.19
2022-08-12T01:32:43.404Z,96750.19
2022-08-12T01:35:15.816Z,96701.28
2022-08-12T01:37:50.110Z,96738.75
2022-08-12T01:40:34.534Z,96767.44
2022-08-12T01:43:09.087Z,96758.19
2022-08-12T01:45:48.574Z,96763.34
2022-08-12T01:48:26.557Z,96762.94
2022-08-12T01:51:06.597Z,96777.66
2022-08-12T01:53:52.536Z,96741.22
2022-08-12T01:56:27.170Z,96726.47
2022-08-12T01:59:16.885Z,96749.00
2022-08-12T02:01:47.909Z,96692.25
2022-08-12T02:04:50.521Z,96748.38
2022-08-12T02:07:55.244Z,96765.38
2022-08-12T02:10:53.698Z,96745.31
2022-08-12T02:13:55.319Z,96704.75
2022-08-12T02:16:37.961Z,96699.22
2022-08-12T02:19:28.569Z,96718.69
2022-08-12T02:22:15.354Z,96733.03
2022-08-12T02:24:47.494Z,96714.19
2022-08-12T02:27:18.817Z,96737.13
2022-08-12T02:29:49.290Z,96756.78
2022-08-12T02:32:17.671Z,96755.34
2022-08-12T02:34:46.585Z,96691.88
2022-08-12T02:37:16.882Z,96734.66
2022-08-12T02:39:50.354Z,96679.59
2022-08-12T02:42:22.218Z,96701.91
2022-08-12T02:44:56.845Z,96660.75
2022-08-12T02:47:58.869Z,96858.00
2022-08-12T02:50:20.454Z,96741.81
2022-08-12T02:52:51.872Z,96687.97
2022-08-12T02:55:28.647Z,96683.00
2022-08-12T02:58:12.490Z,96722.69
2022-08-12T03:00:45.761Z,96721.84
2022-08-12T03:03:16.319Z,96720.53
2022-08-12T03:05:52.819Z,96697.03
2022-08-12T03:08:32.567Z,96701.88
2022-08-12T03:11:09.545Z,96715.16
2022-08-12T03:13:47.269Z,96713.50
2022-08-12T03:16:17.723Z,96727.03
2022-08-12T03:18:46.837Z,96717.16
2022-08-12T03:21:52.843Z,96749.19
2022-08-12T03:24:09.277Z,96766.06
2022-08-12T03:26:38.920Z,96724.78
2022-08-12T03:29:08.477Z,96645.72
2022-08-12T03:31:38.172Z,96761.47
2022-08-12T03:34:09.531Z,96742.22
2022-08-12T03:36:40.119Z,96735.91
2022-08-12T03:39:35.620Z,96730.84
2022-08-12T03:42:22.580Z,96751.13
2022-08-12T03:45:18.190Z,96751.06
2022-08-12T03:48:13.431Z,96745.63
2022-08-12T03:51:06.279Z,96720.22
2022-08-12T03:53:52.324Z,96754.88
2022-08-12T03:56:38.656Z,96738.13
2022-08-12T03:59:25.991Z,96734.66
2022-08-12T04:01:57.467Z,96746.03
2022-08-12T04:04:36.946Z,96732.63
2022-08-12T04:07:08.819Z,96734.34
2022-08-12T04:09:40.211Z,96692.78
2022-08-12T04:12:29.925Z,96730.88
2022-08-12T04:15:02.839Z,96715.50
2022-08-12T04:17:32.690Z,96750.84
2022-08-12T04:20:02.871Z,96710.66
2022-08-12T04:22:31.301Z,96648.63
2022-08-12T04:25:02.060Z,96788.88
2022-08-12T04:27:32.442Z,96730.88
2022-08-12T04:30:16.933Z,96718.09
2022-08-12T04:32:52.200Z,96779.06
2022-08-12T04:35:24.080Z,96763.50
2022-08-12T04:37:57.924Z,96788.56
2022-08-12T04:40:32.449Z,96818.47
2022-08-12T04:43:02.177Z,96742.97
2022-08-12T04:45:31.304Z,96773.66
2022-08-12T04:48:01.903Z,96761.69
2022-08-12T04:50:36.887Z,96776.19
2022-08-12T04:53:09.273Z,96746.19
2022-08-12T04:55:39.433Z,96746.38
2022-08-12T04:58:07.949Z,96731.97
2022-08-12T05:00:37.856Z,96759.38
2022-08-12T05:03:06.408Z,96747.34
2022-08-12T05:05:37.137Z,96735.47
2022-08-12T05:08:06.918Z,96817.44
2022-08-12T05:10:35.833Z,96727.94
2022-08-12T05:13:09.291Z,96604.69
2022-08-12T05:16:00.208Z,96709.13
2022-08-12T05:18:29.634Z,96728.34
2022-08-12T05:21:00.436Z,96788.06
2022-08-12T05:23:54.963Z,96741.97
2022-08-12T05:26:23.803Z,96753.09
2022-08-12T05:28:54.133Z,96633.63
2022-08-12T05:31:40.412Z,96745.03
2022-08-12T05:34:14.760Z,96730.91
2022-08-12T05:36:45.017Z,96762.50
2022-08-12T05:39:13.365Z,96774.78
2022-08-12T05:41:41.681Z,96786.34
2022-08-12T05:44:13.511Z,96779.81
2022-08-12T05:46:42.195Z,96720.78
2022-08-12T05:49:10.673Z,96758.25
2022-08-12T05:51:41.700Z,96720.19
2022-08-12T05:54:13.041Z,96715.75
2022-08-12T05:56:41.967Z,96732.59
2022-08-12T05:59:12.326Z,96749.81
2022-08-12T06:02:09.254Z,96733.66
2022-08-12T06:04:33.266Z,96754.13
2022-08-12T06:07:02.730Z,96761.28
2022-08-12T06:09:52.321Z,96757.78
2022-08-12T06:12:23.330Z,96772.09
2022-08-12T06:14:51.532Z,96890.66
2022-08-12T06:17:19.750Z,96796.03
2022-08-12T06:20:27.398Z,96777.13
2022-08-12T06:22:37.414Z,96731.69
2022-08-12T06:25:08.183Z,96772.94
2022-08-12T06:28:06.768Z,96765.81
2022-08-12T06:30:38.953Z,96767.22
2022-08-12T06:33:23.052Z,96770.31
2022-08-12T06:35:57.565Z,96794.88
2022-08-12T06:38:30.278Z,96768.16
2022-08-12T06:41:19.604Z,96752.75
2022-08-12T06:44:06.658Z,96752.97
2022-08-12T06:46:38.920Z,96812.50
2022-08-12T06:49:08.603Z,96692.44
2022-08-12T06:51:36.847Z,96792.25
2022-08-12T06:54:05.477Z,96663.22
2022-08-12T06:59:24.873Z,96642.56
2022-08-12T07:01:54.987Z,96764.28
2022-08-12T07:04:36.165Z,96777.19
2022-08-12T07:07:06.908Z,96704.47
2022-08-12T07:10:01.582Z,96773.47
2022-08-12T07:12:28.087Z,96693.88
2022-08-12T07:14:57.748Z,96776.53
2022-08-12T07:17:26.344Z,96755.44
2022-08-12T07:19:57.056Z,96758.34
2022-08-12T07:22:28.817Z,96763.00
2022-08-12T07:25:10.975Z,96721.94
2022-08-12T07:27:42.729Z,96756.00
2022-08-12T07:30:12.514Z,96756.19
2022-08-12T07:32:41.386Z,96759.13
2022-08-12T07:35:10.460Z,96746.34
2022-08-12T07:37:42.335Z,96808.31
2022-08-12T07:40:12.151Z,96739.66
2022-08-12T07:42:44.103Z,96757.16
2022-08-12T07:45:14.011Z,96695.53
2022-08-12T07:47:43.821Z,96758.66
2022-08-12T07:50:14.203Z,96756.06
2022-08-12T07:52:46.992Z,96735.06
2022-08-12T07:55:18.787Z,96761.47
2022-08-12T07:57:55.966Z,96757.16
2022-08-12T08:00:24.916Z,96740.34
2022-08-12T08:02:56.853Z,96723.72
2022-08-12T08:05:27.266Z,96749.91
2022-08-12T08:08:01.752Z,96673.28
2022-08-12T08:10:30.767Z,96680.41
2022-08-12T08:13:05.059Z,96747.19
2022-08-12T08:16:01.132Z,96748.19
2022-08-12T08:18:26.550Z,96745.00
2022-08-12T08:20:57.562Z,96687.22
2022-08-12T08:23:56.439Z,96673.09
2022-08-12T08:26:27.061Z,96762.63
2022-08-12T08:28:56.976Z,96716.28
2022-08-12T08:31:25.291Z,96707.91
2022-08-12T08:34:09.501Z,96706.59
2022-08-12T08:36:45.392Z,96724.38
2022-08-12T08:39:17.005Z,96726.59
2022-08-12T08:42:13.981Z,96744.75
2022-08-12T08:44:49.801Z,96676.47
2022-08-12T08:47:27.146Z,96751.13
2022-08-12T08:50:00.947Z,96646.28
2022-08-12T08:52:40.382Z,96718.19
2022-08-12T08:55:10.810Z,96736.19
2022-08-12T08:57:43.917Z,96738.78
2022-08-12T09:00:19.420Z,96669.94
2022-08-12T09:02:58.583Z,96681.75
2022-08-12T09:05:43.170Z,96686.13
2022-08-12T09:08:26.631Z,96739.13
2022-08-12T09:14:10.736Z,96763.88
2022-08-12T09:16:42.610Z,96682.19
2022-08-12T09:19:27.696Z,96707.34
2022-08-12T09:21:57.298Z,96743.44
2022-08-12T09:24:28.645Z,96716.94
2022-08-12T09:26:59.408Z,96576.59
2022-08-12T09:30:11.054Z,96746.34
2022-08-12T09:32:31.428Z,96726.44
2022-08-12T09:35:21.866Z,96725.88
2022-08-12T09:37:58.691Z,96681.53
2022-08-12T09:41:01.590Z,96730.84
2022-08-12T09:43:35.103Z,96717.47
2022-08-12T09:46:06.848Z,96696.91
2022-08-12T09:48:56.384Z,96657.66
2022-08-12T09:51:37.976Z,96684.38
2022-08-12T09:54:32.661Z,96627.69
2022-08-12T09:58:08.024Z,96662.59
2022-08-12T10:00:14.808Z,96714.19
2022-08-12T10:03:01.853Z,96667.38
2022-08-12T10:06:26.509Z,96655.34
2022-08-12T10:08:52.117Z,96634.25
2022-08-12T10:12:12.077Z,96680.81
2022-08-12T10:14:34.365Z,96690.81
2022-08-12T10:17:08.562Z,96708.84
2022-08-12T10:19:40.169Z,96636.41
2022-08-12T10:22:40.522Z,96618.09
2022-08-12T10:26:35.588Z,96659.75
2022-08-12T10:28:34.024Z,96662.22
2022-08-12T10:31:05.246Z,96564.56
2022-08-12T10:33:54.897Z,96674.13
2022-08-12T10:36:36.274Z,96546.75
2022-08-12T10:40:01.271Z,96651.66
2022-08-12T10:42:29.040Z,96643.50
2022-08-12T10:45:17.030Z,96647.88
2022-08-12T10:48:14.949Z,96644.91
2022-08-12T10:50:58.664Z,96618.06
2022-08-12T10:53:45.421Z,96661.38
2022-08-12T10:56:18.281Z,96588.19
2022-08-12T10:58:47.642Z,96614.06
2022-08-12T11:01:49.261Z,96667.16
2022-08-12T11:04:23.264Z,96635.50
2022-08-12T11:07:09.011Z,96628.44
2022-08-12T11:10:01.051Z,96581.56
2022-08-12T11:12:55.208Z,96682.31
2022-08-12T11:15:24.180Z,96581.97
2022-08-12T11:18:03.297Z,96630.06
2022-08-12T11:20:31.714Z,96594.81
2022-08-12T11:23:04.307Z,96593.69
2022-08-12T11:25:58.105Z,96504.22
2022-08-12T11:28:33.594Z,96608.66
2022-08-12T11:31:04.711Z,96575.88
2022-08-12T11:34:06.236Z,96585.28
2022-08-12T11:36:22.356Z,96605.44
2022-08-12T11:38:51.445Z,96556.78
2022-08-12T11:41:31.410Z,96599.63
2022-08-12T11:44:36.169Z,96586.94
2022-08-12T11:46:53.297Z,96566.72
2022-08-12T11:49:31.668Z,96618.13
2022-08-12T11:52:02.449Z,96605.03
2022-08-12T11:54:31.581Z,96526.50
2022-08-12T11:57:02.106Z,96554.66
2022-08-12T12:02:21.928Z,96560.09
2022-08-12T12:04:52.704Z,96513.84
2022-08-12T12:07:34.050Z,96543.63
2022-08-12T12:10:13.783Z,96559.84
2022-08-12T12:12:50.021Z,96528.09
2022-08-12T12:15:24.830Z,96559.25
2022-08-12T12:18:05.752Z,96560.31
2022-08-12T12:20:36.262Z,96611.50
2022-08-12T12:23:04.774Z,96537.69
2022-08-12T12:26:06.481Z,96523.00
2022-08-12T12:28:37.189Z,96623.25
2022-08-12T12:31:15.211Z,96563.94
2022-08-12T12:33:58.747Z,96530.53
2022-08-12T12:36:30.241Z,96571.38
2022-08-12T12:39:00.522Z,96582.44
2022-08-12T12:42:55.419Z,96586.31
2022-08-12T12:45:28.439Z,96561.09
2022-08-12T12:48:05.423Z,96530.72
2022-08-12T12:50:45.570Z,96596.94
2022-08-12T12:54:08.929Z,96512.78
2022-08-12T12:56:17.063Z,96497.84
2022-08-12T12:58:46.520Z,96561.97
2022-08-12T13:01:27.833Z,96402.81
2022-08-12T13:04:14.442Z,96615.09
2022-08-12T13:06:45.593Z,96491.22
2022-08-12T13:09:36.269Z,96524.91
2022-08-12T13:12:08.994Z,96589.13
2022-08-12T13:14:39.962Z,96567.56
2022-08-12T13:17:14.658Z,96524.06
2022-08-12T13:19:49.920Z,96564.38
2022-08-12T13:22:23.865Z,96557.84
2022-08-12T13:24:56.914Z,96493.13
2022-08-12T13:27:34.372Z,96545.16
2022-08-12T13:30:11.130Z,96519.22
2022-08-12T13:32:42.408Z,96548.31
2022-08-12T13:35:19.212Z,96558.69
2022-08-12T13:37:55.085Z,96513.38
2022-08-12T13:40:25.301Z,96545.25
2022-08-12T13:42:57.973Z,96469.75
2022-08-12T13:45:26.968Z,96489.22
2022-08-12T13:48:00.470Z,96510.41
2022-08-12T13:50:33.377Z,96552.63
2022-08-12T13:53:23.212Z,96502.56
2022-08-12T13:55:59.783Z,96527.59
2022-08-12T13:58:32.948Z,96535.56
2022-08-12T14:01:05.940Z,96501.72
2022-08-12T14:03:51.329Z,96554.31
2022-08-12T14:06:26.007Z,96475.00
2022-08-12T14:08:59.604Z,96477.72
2022-08-12T14:11:28.199Z,96531.03
2022-08-12T14:14:04.587Z,96534.41
2022-08-12T14:16:48.336Z,96485.13
2022-08-12T14:19:22.645Z,96524.47
2022-08-12T14:21:59.124Z,96528.56
2022-08-12T14:24:35.061Z,96464.16
2022-08-12T14:27:09.240Z,96493.06
2022-08-12T14:30:04.131Z,96502.88
2022-08-12T14:32:34.637Z,96448.78
2022-08-12T14:35:06.515Z,96517.47
2022-08-12T14:37:56.782Z,96527.53
2022-08-12T14:40:28.545Z,96523.13
2022-08-12T14:42:58.887Z,96534.84
2022-08-12T14:45:45.560Z,96510.00
2022-08-12T14:48:19.486Z,96486.50
2022-08-12T14:52:07.917Z,96502.03
2022-08-12T14:55:24.793Z,96530.03
2022-08-12T14:57:01.457Z,96515.56
2022-08-12T14:59:57.341Z,96510.22
2022-08-12T15:02:28.472Z,96523.97
2022-08-12T15:04:59.772Z,96504.22
2022-08-12T15:07:33.474Z,96489.38
2022-08-12T15:10:25.395Z,96525.72
2022-08-12T15:13:07.318Z,96510.34
2022-08-12T15:15:44.223Z,96546.91
2022-08-12T15:18:21.736Z,96470.63
2022-08-12T15:20:52.557Z,96513.25
2022-08-12T15:23:24.221Z,96513.63
2022-08-12T15:26:03.252Z,96502.44
2022-08-12T15:28:35.021Z,96472.41
2022-08-12T15:31:09.562Z,96539.94
2022-08-12T15:33:57.389Z,96519.56
2022-08-12T15:36:54.635Z,96454.75
2022-08-12T15:39:16.455Z,96450.28
2022-08-12T15:41:49.645Z,96471.66
2022-08-12T15:44:42.060Z,96468.81
2022-08-12T15:47:10.208Z,96487.56
2022-08-12T15:49:54.306Z,96506.00
2022-08-12T15:52:29.911Z,96472.16
2022-08-12T15:55:05.118Z,96490.69
2022-08-12T15:57:36.310Z,96452.44
2022-08-12T16:00:09.480Z,96478.00
2022-08-12T16:02:58.299Z,96462.53
2022-08-12T16:06:11.027Z,96500.28
2022-08-12T16:08:27.676Z,96451.44
2022-08-12T16:10:56.885Z,96469.34
2022-08-12T16:13:34.805Z,96456.09
2022-08-12T16:16:22.490Z,96472.41
2022-08-12T16:18:56.426Z,96541.03
2022-08-12T16:21:51.964Z,96545.63
2022-08-12T16:24:14.368Z,96470.97
2022-08-12T16:26:45.059Z,96470.16
2022-08-12T16:29:16.331Z,96493.78
2022-08-12T16:31:45.327Z,96467.22
2022-08-12T16:34:26.177Z,96488.94
2022-08-12T16:37:09.429Z,96461.63
2022-08-12T16:39:59.666Z,96504.06
2022-08-12T16:42:27.809Z,96466.72
2022-08-12T16:45:02.249Z,96432.50
2022-08-12T16:47:58.215Z,96420.63
2022-08-12T16:50:31.373Z,96458.81
2022-08-12T16:53:03.319Z,96507.31
2022-08-12T16:55:41.770Z,96478.13
2022-08-12T16:58:18.445Z,96496.03
2022-08-12T17:00:58.118Z,96425.69
2022-08-12T17:03:29.020Z,96492.31
2022-08-12T17:05:58.948Z,96466.50
2022-08-12T17:08:28.982Z,96459.03
2022-08-12T17:10:58.068Z,96438.56
2022-08-12T17:13:26.834Z,96398.81
2022-08-12T17:16:05.501Z,96458.84
2022-08-12T17:18:42.919Z,96517.50
2022-08-12T17:21:17.407Z,96479.16
2022-08-12T17:23:52.958Z,96498.63
2022-08-12T17:26:28.379Z,96460.25
2022-08-12T17:29:01.070Z,96484.00
2022-08-12T17:32:01.124Z,96441.31
2022-08-12T17:34:33.945Z,96468.31
2022-08-12T17:37:05.482Z,96510.97
2022-08-12T17:40:15.323Z,96487.78
2022-08-12T17:42:34.830Z,96511.78
2022-08-12T17:45:17.393Z,96514.47
2022-08-12T17:48:04.843Z,96496.13
2022-08-12T17:50:38.764Z,96528.53
2022-08-12T17:53:10.094Z,96508.81
2022-08-12T17:55:47.372Z,96522.31
2022-08-12T17:58:37.014Z,96529.91
2022-08-12T18:01:11.489Z,96443.72
2022-08-12T18:04:05.537Z,96452.09
2022-08-12T18:06:34.595Z,96527.41
2022-08-12T18:09:08.532Z,96514.22
2022-08-12T18:12:06.345Z,96517.69
2022-08-12T18:14:37.046Z,96476.94
2022-08-12T18:17:08.163Z,96529.81
2022-08-12T18:20:06.047Z,96494.09
2022-08-12T18:22:31.622Z,96537.38
2022-08-12T18:25:04.739Z,96519.94
2022-08-12T18:27:44.815Z,96468.66
2022-08-12T18:30:28.933Z,96553.09
2022-08-12T18:33:03.483Z,96527.41
2022-08-12T18:35:53.483Z,96525.19
2022-08-12T18:38:28.186Z,96500.50
2022-08-12T18:41:17.540Z,96547.09
2022-08-12T18:43:59.422Z,96529.19
2022-08-12T18:46:53.320Z,96564.66
2022-08-12T18:49:39.398Z,96523.59
2022-08-12T18:52:11.901Z,96539.19
2022-08-12T18:54:48.955Z,96563.84
2022-08-12T18:58:06.441Z,96536.31
2022-08-12T19:00:21.023Z,96529.13
2022-08-12T19:02:53.116Z,96520.16
2022-08-12T19:05:53.299Z,96577.88
2022-08-12T19:08:14.297Z,96576.00
2022-08-12T19:10:50.586Z,96604.47
2022-08-12T19:13:38.982Z,96553.72
2022-08-12T19:16:11.357Z,96611.69
2022-08-12T19:18:44.497Z,96568.16
2022-08-12T19:21:16.997Z,96508.00
2022-08-12T19:24:10.436Z,96590.63
2022-08-12T19:26:42.473Z,96605.00
2022-08-12T19:29:11.720Z,96581.66
2022-08-12T19:31:58.932Z,96570.97
2022-08-12T19:37:27.104Z,96635.28
2022-08-12T19:40:08.930Z,96590.09
2022-08-12T19:42:57.594Z,96631.63
2022-08-12T19:45:42.022Z,96500.91
2022-08-12T19:48:16.587Z,96587.69
2022-08-12T19:50:50.411Z,96604.59
2022-08-12T19:53:23.367Z,96623.00
2022-08-12T19:55:54.317Z,96614.34
2022-08-12T19:58:25.148Z,96527.84
2022-08-12T20:00:55.475Z,96637.63
2022-08-12T20:03:38.381Z,96608.44
2022-08-12T20:06:18.346Z,96610.84
2022-08-12T20:08:56.569Z,96594.41
2022-08-12T20:12:09.690Z,96568.56
2022-08-12T20:14:19.012Z,96618.50
2022-08-12T20:16:56.373Z,96558.13
2022-08-12T20:20:05.565Z,96584.19
2022-08-12T20:22:24.335Z,96623.38
2022-08-12T20:25:01.305Z,96615.72
2022-08-12T20:28:03.123Z,96632.03
2022-08-12T20:30:52.503Z,96572.03
2022-08-12T20:33:17.629Z,96497.13
2022-08-12T20:36:14.130Z,96579.06
2022-08-12T20:38:42.132Z,96581.47
2022-08-12T20:41:16.492Z,96648.06
2022-08-12T20:43:49.309Z,96568.44
2022-08-12T20:46:20.113Z,96607.56
2022-08-12T20:48:54.539Z,96515.94
2022-08-12T20:51:24.027Z,96488.16
2022-08-12T20:53:59.680Z,96603.72
2022-08-12T20:56:33.057Z,96576.00
2022-08-12T20:59:05.956Z,96583.13
2022-08-12T21:01:47.904Z,96620.78
2022-08-12T21:04:36.571Z,96592.72
2022-08-12T21:07:09.632Z,96592.56
2022-08-12T21:09:43.883Z,96566.13
2022-08-12T21:12:27.855Z,96581.28
2022-08-12T21:15:23.037Z,96590.63
2022-08-12T21:18:11.149Z,96593.75
2022-08-12T21:20:52.442Z,96525.78
2022-08-12T21:23:22.535Z,96613.97
2022-08-12T21:25:52.584Z,96522.97
2022-08-12T21:28:30.994Z,96603.25
2022-08-12T21:32:34.301Z,96592.25
2022-08-12T21:34:07.164Z,96604.00
2022-08-12T21:36:43.309Z,96609.19
2022-08-12T21:39:21.342Z,96395.72
2022-08-12T21:41:52.741Z,96641.41
2022-08-12T21:44:24.213Z,96602.03
2022-08-12T21:47:20.871Z,96636.53
2022-08-12T21:50:03.136Z,96583.81
2022-08-12T21:52:37.002Z,96610.63
2022-08-12T21:55:18.119Z,96597.03
2022-08-12T21:57:54.025Z,96636.53
2022-08-12T22:00:35.002Z,96642.47
2022-08-12T22:04:04.219Z,96647.69
2022-08-12T22:06:30.428Z,96619.75
2022-08-12T22:09:16.519Z,96617.66
2022-08-12T22:11:56.435Z,96619.75
2022-08-12T22:14:29.211Z,96624.34
2022-08-12T22:17:01.281Z,96625.19
2022-08-12T22:19:35.096Z,96600.03
2022-08-12T22:22:06.114Z,96628.53
2022-08-12T22:24:34.745Z,96602.06
2022-08-12T22:27:17.948Z,96609.47
2022-08-12T22:30:15.938Z,96620.16
2022-08-12T22:32:49.932Z,96613.53
2022-08-12T22:35:56.262Z,96612.75
2022-08-12T22:38:29.353Z,96627.44
2022-08-12T22:41:01.838Z,96621.56
2022-08-12T22:44:00.709Z,96564.22
2022-08-12T22:46:53.104Z,96610.94
2022-08-12T22:49:36.367Z,96611.50
2022-08-12T22:52:08.449Z,96577.78
2022-08-12T22:55:00.283Z,96471.69
2022-08-12T22:57:49.390Z,96610.91
2022-08-12T23:00:24.539Z,96572.19
2022-08-12T23:03:03.387Z,96627.72
2022-08-12T23:06:05.555Z,96586.06
2022-08-12T23:08:30.000Z,96607.47
2022-08-12T23:11:06.220Z,96580.63
2022-08-12T23:13:55.395Z,96598.00
2022-08-12T23:16:31.061Z,96550.41
2022-08-12T23:19:10.704Z,96602.81
2022-08-12T23:22:04.224Z,96618.22
2022-08-12T23:24:56.260Z,96591.72
2022-08-12T23:27:50.664Z,96597.53
2022-08-12T23:30:30.954Z,96546.66
2022-08-12T23:33:01.375Z,96599.28
2022-08-12T23:36:02.961Z,96620.06
2022-08-12T23:38:33.206Z,96603.88
2022-08-12T23:41:04.286Z,96566.34
2022-08-12T23:43:39.545Z,96563.47
2022-08-12T23:46:11.019Z,96604.69
2022-08-12T23:48:40.681Z,96590.84
2022-08-12T23:51:23.690Z,96580.75
2022-08-12T23:53:56.238Z,96615.16
2022-08-12T23:56:26.446Z,96609.34
2022-08-12T23:58:58.609Z,96641.09
